Terminal Aerodrome Forecast
Issued by NWS

Home | Current Version | Previous Version | Text Only | Print | Product List | Glossary On
Versions: 1 2 3 4 5 6 7 8 9 10 11 12 13 14 15
000
FTAK31 PAFA 181738
TAFAOM
TAF
PAOM 181738Z 1818/1918 09006KT 6SM -SN BR BKN015 OVC025
     FM182000 12025G35KT 1 1/2SM -SN BLSN BR BKN007 OVC015
     FM182200 12025G35KT 1/4SM SN BLSN FZFG BKN007 OVC015
     FM190400 12025G35KT 1SM -SN BLSN BR BKN007 OVC015=

USA.gov is the U.S. government's official web portal to all federal, state and local government web resources and services.